Time;durP1;ratioP1;P1;durP2;ratioP2;P2;SDS_P1;SDS_P2;PMS_P1;PMS_P2;Temp;Humidity;BMP_temperature;BMP_pressure;BME280_temperature;BME280_humidity;BME280_pressure;Samples;Min_cycle;Max_cycle;Signal;HPM_P1;HPM_P2
2023/03/15 00:01:17;;;;;;;5.30;2.50;;;;;;;10.75;35.83;98827.69;5038371;28;20091;-68
2023/03/15 00:03:43;;;;;;;4.25;2.58;;;;;;;10.56;35.82;98834.31;5039253;28;20091;-68
2023/03/15 00:06:10;;;;;;;3.00;2.42;;;;;;;10.65;35.70;98819.13;5005461;28;20040;-67
2023/03/15 00:08:36;;;;;;;3.42;2.30;;;;;;;10.53;35.91;98860.38;5021712;28;20110;-67
2023/03/15 00:11:02;;;;;;;5.22;2.47;;;;;;;10.46;36.06;98833.69;5005407;28;20044;-67
2023/03/15 00:13:29;;;;;;;5.68;2.80;;;;;;;10.62;36.16;98838.06;5005353;28;20048;-68
2023/03/15 00:15:58;;;;;;;5.75;2.50;;;;;;;10.73;36.04;98833.16;5038060;28;20094;-68
2023/03/15 00:18:25;;;;;;;5.80;2.90;;;;;;;10.64;36.10;98850.16;5038039;28;20388;-68
2023/03/15 00:20:51;;;;;;;3.53;2.60;;;;;;;10.52;36.37;98827.69;5021853;28;20148;-68
2023/03/15 00:23:17;;;;;;;4.85;2.75;;;;;;;10.72;36.49;98822.69;5005167;28;20063;-68
2023/03/15 00:25:45;;;;;;;3.63;2.88;;;;;;;10.78;36.47;98817.50;5004898;28;20055;-67
2023/03/15 00:28:11;;;;;;;5.50;2.53;;;;;;;10.70;36.42;98809.59;5021284;28;20036;-67
2023/03/15 00:30:37;;;;;;;4.25;2.33;;;;;;;10.55;36.50;98818.56;5019917;28;20419;-67
2023/03/15 00:33:04;;;;;;;3.65;2.50;;;;;;;10.66;36.64;98810.97;5003484;28;20063;-68
2023/03/15 00:35:32;;;;;;;6.65;2.50;;;;;;;10.81;36.57;98803.88;5003303;28;20067;-68
2023/03/15 00:37:58;;;;;;;6.90;2.88;;;;;;;10.78;36.43;98803.41;5003353;28;20049;-69
2023/03/15 00:40:24;;;;;;;6.85;2.80;;;;;;;10.60;36.82;98800.22;5036119;28;20558;-72
2023/03/15 00:42:51;;;;;;;5.55;3.25;;;;;;;10.52;37.09;98781.75;5003821;28;20131;-69
2023/03/15 00:45:20;;;;;;;3.30;2.50;;;;;;;10.76;37.33;98811.56;5004247;28;20063;-68
2023/03/15 00:47:51;;;;;;;3.78;2.70;;;;;;;10.71;37.52;98795.34;5036979;28;20484;-68
2023/03/15 00:50:17;;;;;;;10.40;2.77;;;;;;;10.56;37.47;98805.09;5019846;28;20399;-68
2023/03/15 00:52:43;;;;;;;5.93;3.08;;;;;;;10.38;37.74;98801.09;5035327;28;20669;-69
2023/03/15 00:55:14;;;;;;;6.03;2.70;;;;;;;10.54;37.92;98817.72;5036242;28;20151;-68
2023/03/15 00:57:40;;;;;;;;;;;;;;;10.69;37.62;98807.13;5020711;28;20381;-69
2023/03/15 01:00:16;;;;;;;3.80;2.70;;;;;;;10.58;38.07;98797.75;5019764;28;20342;-68
2023/03/15 01:02:42;;;;;;;8.40;3.03;;;;;;;10.40;37.90;98805.22;5053321;28;20056;-68
2023/03/15 01:05:08;;;;;;;3.70;2.58;;;;;;;10.27;38.38;98824.38;5021158;28;20389;-68
2023/03/15 01:07:37;;;;;;;4.50;2.75;;;;;;;10.32;38.57;98799.16;5004786;28;20056;-68
2023/03/15 01:10:04;;;;;;;2.97;2.40;;;;;;;10.49;38.43;98801.47;5021064;28;20056;-69
2023/03/15 01:12:31;;;;;;;5.75;2.67;;;;;;;10.37;38.32;98792.28;5037729;28;20044;-68
2023/03/15 01:14:58;;;;;;;6.50;2.85;;;;;;;10.35;38.48;98820.03;5037636;28;20045;-67
2023/03/15 01:17:23;;;;;;;4.50;2.80;;;;;;;10.22;39.00;98789.56;5021164;28;20044;-67
2023/03/15 01:19:50;;;;;;;5.10;2.80;;;;;;;10.18;38.80;98788.28;5037812;28;20093;-67
2023/03/15 01:22:18;;;;;;;4.05;2.80;;;;;;;10.30;38.92;98787.88;5005230;28;20055;-68
2023/03/15 01:24:44;;;;;;;3.00;2.63;;;;;;;10.16;39.17;98798.22;5037671;28;20063;-67
2023/03/15 01:27:10;;;;;;;6.55;3.10;;;;;;;10.20;38.96;98818.13;5021332;28;20048;-68
2023/03/15 01:29:36;;;;;;;5.03;2.95;;;;;;;10.30;38.99;98814.41;5020802;28;20040;-68
2023/03/15 01:32:03;;;;;;;5.10;2.60;;;;;;;10.18;39.31;98790.94;5004559;28;20396;-67
2023/03/15 01:34:29;;;;;;;5.32;3.00;;;;;;;10.23;39.04;98799.19;5037235;28;20400;-68
2023/03/15 01:36:56;;;;;;;3.45;2.60;;;;;;;10.26;39.01;98808.63;5004377;28;20040;-67
2023/03/15 01:39:28;;;;;;;3.75;2.88;;;;;;;10.34;38.93;98791.81;5038274;28;20051;-70
2023/03/15 01:41:54;;;;;;;5.22;2.63;;;;;;;10.06;39.42;98799.44;5037610;28;20052;-68
2023/03/15 01:44:20;;;;;;;6.03;2.70;;;;;;;10.12;39.51;98802.25;5004457;28;20040;-69
2023/03/15 01:46:48;;;;;;;6.10;3.20;;;;;;;9.94;39.89;98793.72;5037393;28;20476;-68
2023/03/15 01:49:30;;;;;;;5.13;2.90;;;;;;;10.41;39.73;98809.50;5053985;28;20036;-68
2023/03/15 01:52:11;;;;;;;5.45;2.92;;;;;;;10.46;39.99;98804.50;5037456;28;20553;-69
2023/03/15 01:55:09;;;;;;;6.47;3.15;;;;;;;10.54;39.87;98801.78;5027051;28;20044;-67
2023/03/15 01:57:42;;;;;;;5.03;3.08;;;;;;;10.39;39.74;98810.69;5021266;28;20036;-68
2023/03/15 02:00:14;;;;;;;5.32;2.83;;;;;;;10.51;39.40;98819.88;5020915;28;20094;-69
2023/03/15 02:02:57;;;;;;;6.32;2.53;;;;;;;10.53;39.76;98809.94;5020982;28;20110;-69
2023/03/15 02:05:31;;;;;;;6.80;2.97;;;;;;;10.53;39.56;98809.94;5021573;28;20109;-67
2023/03/15 02:07:58;;;;;;;4.88;2.88;;;;;;;10.13;39.83;98809.19;5037487;28;20151;-68
2023/03/15 02:10:37;;;;;;;5.47;3.08;;;;;;;10.52;39.76;98801.13;5005565;28;20087;-68
2023/03/15 02:13:04;;;;;;;7.25;3.22;;;;;;;10.36;39.64;98787.16;5004952;28;20056;-68
2023/03/15 02:15:31;;;;;;;5.22;3.03;;;;;;;10.33;39.51;98800.78;5040550;28;20127;-69
2023/03/15 02:17:59;;;;;;;5.85;2.75;;;;;;;10.38;39.17;98795.78;5008391;28;20040;-68
2023/03/15 02:20:51;;;;;;;5.90;2.88;;;;;;;10.74;39.43;98791.50;5032269;28;20056;-68
2023/03/15 02:23:21;;;;;;;6.57;2.78;;;;;;;10.51;39.76;98809.28;5040358;28;20048;-68
2023/03/15 02:25:51;;;;;;;7.13;2.72;;;;;;;10.32;39.42;98802.59;5032610;28;20053;-69
2023/03/15 02:28:18;;;;;;;5.30;3.10;;;;;;;10.43;39.43;98838.53;5052300;28;20550;-68
2023/03/15 02:30:45;;;;;;;7.85;2.78;;;;;;;10.40;39.58;98799.06;5019254;28;20087;-67
2023/03/15 02:33:40;;;;;;;6.80;3.20;;;;;;;10.80;39.40;98820.81;5035653;28;20111;-68
2023/03/15 02:36:10;;;;;;;4.28;2.90;;;;;;;10.60;39.44;98817.00;4995912;28;20084;-68
2023/03/15 02:38:36;;;;;;;7.00;2.95;;;;;;;10.23;39.61;98831.03;4980029;28;20457;-68
2023/03/15 02:41:03;;;;;;;9.10;3.13;;;;;;;10.41;40.06;98811.34;4979751;28;20049;-69
2023/03/15 02:43:30;;;;;;;4.82;2.60;;;;;;;10.27;39.98;98825.38;4992880;28;20459;-68
2023/03/15 02:45:56;;;;;;;6.60;3.03;;;;;;;10.43;39.69;98810.16;4967450;28;20053;-68
2023/03/15 02:48:22;;;;;;;8.35;2.83;;;;;;;10.37;39.45;98810.03;5015461;28;20062;-68
2023/03/15 02:50:47;;;;;;;6.53;2.83;;;;;;;10.26;39.88;98816.56;4999097;28;20056;-68
2023/03/15 02:53:14;;;;;;;4.90;2.90;;;;;;;10.39;39.80;98808.03;4999096;28;20057;-68
2023/03/15 02:55:40;;;;;;;8.77;3.20;;;;;;;10.41;39.33;98832.59;5014421;28;20052;-66
2023/03/15 02:58:06;;;;;;;4.13;3.08;;;;;;;10.32;39.61;98834.44;4963189;28;20056;-66
2023/03/15 03:00:31;;;;;;;10.00;3.03;;;;;;;10.30;39.73;98831.16;4986215;28;20046;-68
2023/03/15 03:02:58;;;;;;;6.70;2.95;;;;;;;10.39;39.72;98835.41;4974891;28;20132;-65
2023/03/15 03:05:24;;;;;;;6.88;3.33;;;;;;;10.39;39.55;98816.84;4960189;28;20077;-66
2023/03/15 03:07:50;;;;;;;8.98;3.03;;;;;;;10.37;39.67;98831.25;4976215;28;20175;-66
2023/03/15 03:10:18;;;;;;;5.22;2.88;;;;;;;10.42;39.94;98835.06;4974483;28;20054;-67
2023/03/15 03:12:52;;;;;;;7.13;3.38;;;;;;;10.35;39.63;98815.53;4943042;28;20794;-66
2023/03/15 03:15:21;;;;;;;6.18;3.00;;;;;;;10.37;39.41;98844.53;4991708;28;20057;-66
2023/03/15 03:17:48;;;;;;;6.13;2.90;;;;;;;10.23;39.78;98852.25;5018065;28;20041;-65
2023/03/15 03:20:16;;;;;;;7.75;3.50;;;;;;;10.26;39.95;98843.13;5018902;28;20041;-65
2023/03/15 03:22:45;;;;;;;5.15;3.13;;;;;;;10.27;39.88;98842.13;5004111;28;20543;-65
2023/03/15 03:25:11;;;;;;;5.15;3.25;;;;;;;10.39;39.70;98830.09;4986765;28;20043;-66
2023/03/15 03:27:42;;;;;;;7.38;3.65;;;;;;;10.34;39.70;98835.09;5003608;28;20492;-66
2023/03/15 03:30:11;;;;;;;10.70;2.90;;;;;;;10.56;39.50;98825.50;5003446;28;20049;-65
2023/03/15 03:32:43;;;;;;;7.00;3.10;;;;;;;10.59;39.82;98838.41;5003550;28;20153;-66
2023/03/15 03:35:09;;;;;;;6.03;3.17;;;;;;;10.30;39.83;98830.34;4986728;28;20041;-66
2023/03/15 03:37:35;;;;;;;11.20;3.10;;;;;;;10.20;39.65;98835.84;4986410;28;20080;-67
2023/03/15 03:40:07;;;;;;;;;;;;;;;10.57;39.47;98851.03;5003717;28;20136;-66
2023/03/15 03:42:34;;;;;;;5.90;3.53;;;;;;;10.29;39.95;98839.31;5035380;28;19924;-66
2023/03/15 03:45:01;;;;;;;6.97;3.53;;;;;;;10.12;39.54;98836.72;5002858;28;20083;-65
2023/03/15 03:47:41;;;;;;;9.40;3.53;;;;;;;10.13;40.09;98830.41;4989999;28;20051;-65
2023/03/15 03:50:11;;;;;;;6.65;3.50;;;;;;;10.17;40.03;98858.28;4986264;28;20397;-65
2023/03/15 03:52:37;;;;;;;7.82;3.28;;;;;;;10.18;40.06;98844.00;5018350;28;20473;-67
2023/03/15 03:55:06;;;;;;;5.20;3.10;;;;;;;10.12;40.08;98836.72;4985443;28;20107;-67
2023/03/15 03:57:32;;;;;;;8.07;3.40;;;;;;;10.08;40.27;98830.13;5000898;28;20041;-66
2023/03/15 03:59:59;;;;;;;3.80;2.88;;;;;;;9.78;40.35;98843.31;4984996;28;20044;-66
2023/03/15 04:02:26;;;;;;;6.03;3.53;;;;;;;10.00;40.23;98837.25;5031413;28;20064;-65
2023/03/15 04:04:58;;;;;;;5.80;3.00;;;;;;;9.84;40.56;98846.13;5020719;28;20040;-65
2023/03/15 04:07:25;;;;;;;7.78;3.30;;;;;;;10.07;40.15;98839.06;5001893;28;20051;-66
2023/03/15 04:09:52;;;;;;;4.88;3.13;;;;;;;9.95;40.38;98866.13;5018647;28;20049;-66
2023/03/15 04:12:18;;;;;;;11.63;3.08;;;;;;;9.94;40.31;98867.13;5001831;28;20464;-66
2023/03/15 04:14:51;;;;;;;5.18;3.00;;;;;;;9.84;40.12;98862.03;5003894;28;20037;-67
2023/03/15 04:17:20;;;;;;;7.10;3.90;;;;;;;10.04;39.80;98855.31;5002090;28;20465;-67
2023/03/15 04:19:46;;;;;;;4.68;3.20;;;;;;;9.93;39.68;98847.72;5021940;28;20114;-67
2023/03/15 04:22:14;;;;;;;5.03;3.42;;;;;;;9.89;40.04;98861.50;5018419;28;20068;-67
2023/03/15 04:25:06;;;;;;;8.73;3.80;;;;;;;9.91;40.33;98849.75;5019909;28;20067;-71
2023/03/15 04:28:01;;;;;;;7.65;3.60;;;;;;;10.00;39.79;98863.78;5001911;28;20076;-69
2023/03/15 04:30:57;;;;;;;8.10;3.58;;;;;;;9.83;39.83;98870.16;4997984;28;20098;-69
2023/03/15 04:33:30;;;;;;;6.63;3.15;;;;;;;10.07;39.85;98857.66;5008988;28;20599;-69
2023/03/15 04:36:19;;;;;;;5.40;3.42;;;;;;;10.04;39.58;98891.66;4997146;28;20052;-69
2023/03/15 04:39:24;;;;;;;6.97;2.90;;;;;;;10.09;39.41;98863.63;4979125;28;20436;-68
2023/03/15 04:42:03;;;;;;;10.85;3.47;;;;;;;10.12;39.26;98876.53;5016819;28;20052;-66
2023/03/15 04:44:52;;;;;;;7.45;3.17;;;;;;;10.20;39.41;98891.59;4984630;28;20033;-67
2023/03/15 04:47:37;;;;;;;5.72;3.15;;;;;;;9.99;39.56;98880.72;5000401;28;20052;-67
2023/03/15 04:50:03;;;;;;;9.60;3.58;;;;;;;10.02;39.39;98873.22;4998234;28;20041;-67
2023/03/15 04:52:50;;;;;;;6.88;3.58;;;;;;;10.05;39.29;98882.69;5018294;28;20045;-70
2023/03/15 04:55:43;;;;;;;7.43;3.90;;;;;;;10.10;39.14;98872.41;4976703;28;20409;-72
2023/03/15 04:58:12;;;;;;;10.68;3.50;;;;;;;10.35;38.89;98870.44;4995343;28;20135;-69
2023/03/15 05:01:08;;;;;;;9.25;3.53;;;;;;;10.26;38.74;98893.53;4997321;28;20060;-71
2023/03/15 05:04:02;;;;;;;8.60;3.60;;;;;;;10.02;39.18;98893.63;5010153;28;20057;-72
2023/03/15 05:06:47;;;;;;;9.35;4.20;;;;;;;10.10;39.11;98880.38;5004803;28;20063;-69
2023/03/15 05:09:40;;;;;;;7.53;3.70;;;;;;;10.14;39.11;98897.59;5007138;28;20044;-69
2023/03/15 05:12:29;;;;;;;9.23;3.72;;;;;;;10.30;38.81;98889.56;5010939;28;20366;-68
2023/03/15 05:15:21;;;;;;;11.52;3.80;;;;;;;10.18;38.87;98907.69;5020926;28;20072;-64
2023/03/15 05:17:53;;;;;;;11.32;3.70;;;;;;;10.33;38.71;98893.69;5032913;28;20147;-69
2023/03/15 05:20:42;;;;;;;8.43;3.08;;;;;;;10.14;38.77;98916.16;5023165;28;20045;-69
2023/03/15 05:23:36;;;;;;;7.65;3.75;;;;;;;10.16;38.88;98912.31;5003659;28;20049;-77
2023/03/15 05:26:15;;;;;;;8.18;3.58;;;;;;;10.36;38.67;98915.41;5037761;28;20036;-70
2023/03/15 05:28:56;;;;;;;8.18;3.22;;;;;;;10.13;38.66;98920.63;5039928;28;20046;-69
2023/03/15 05:31:52;;;;;;;9.73;3.75;;;;;;;10.33;38.68;98936.13;4999185;28;20049;-68
2023/03/15 05:34:28;;;;;;;7.15;3.50;;;;;;;10.55;38.45;98938.03;4980861;28;20041;-67
2023/03/15 05:37:04;;;;;;;7.25;4.05;;;;;;;10.51;38.08;98936.69;5006117;28;20052;-67
2023/03/15 05:39:53;;;;;;;6.90;3.75;;;;;;;10.62;38.06;98933.66;4979054;28;20054;-67
2023/03/15 05:42:48;;;;;;;6.45;3.65;;;;;;;10.45;38.36;98950.69;5018481;28;20108;-67
2023/03/15 05:45:17;;;;;;;5.65;3.58;;;;;;;10.44;38.10;98917.97;5036004;28;20052;-67
2023/03/15 05:47:52;;;;;;;6.03;3.78;;;;;;;10.38;38.24;98969.09;5021904;28;20140;-67
2023/03/15 05:50:40;;;;;;;11.50;4.22;;;;;;;10.44;38.08;98970.25;5029385;28;20036;-67
2023/03/15 05:53:35;;;;;;;9.95;4.05;;;;;;;10.48;38.02;98964.44;5022693;28;20087;-67
2023/03/15 05:56:23;;;;;;;5.47;3.75;;;;;;;10.53;38.01;98978.03;5026088;28;21420;-67
2023/03/15 05:59:05;;;;;;;6.45;3.47;;;;;;;10.61;37.87;98972.66;5027782;28;20044;-68
2023/03/15 06:01:44;;;;;;;8.40;3.60;;;;;;;10.60;37.91;98946.28;5021460;28;20056;-67
2023/03/15 06:04:17;;;;;;;8.65;3.50;;;;;;;10.66;38.08;98953.53;5037277;28;20128;-68
2023/03/15 06:06:44;;;;;;;6.10;3.55;;;;;;;10.57;38.18;98965.19;5019872;28;20053;-67
2023/03/15 06:09:11;;;;;;;8.73;4.10;;;;;;;10.56;38.21;98980.31;5017879;28;20078;-68
2023/03/15 06:11:37;;;;;;;6.63;3.92;;;;;;;10.69;37.92;98990.34;5018008;28;20582;-69
2023/03/15 06:14:03;;;;;;;7.15;3.88;;;;;;;10.73;37.74;98991.69;5001654;28;20061;-68
2023/03/15 06:16:35;;;;;;;8.73;3.85;;;;;;;10.87;37.84;98967.03;5015859;28;20037;-68
2023/03/15 06:19:03;;;;;;;8.32;4.03;;;;;;;10.85;37.65;98977.00;5031168;28;20156;-70
2023/03/15 06:21:29;;;;;;;8.77;4.80;;;;;;;10.94;37.47;98978.59;5009760;28;20425;-68
2023/03/15 06:23:55;;;;;;;10.88;4.10;;;;;;;11.02;37.43;98978.53;5016459;28;20045;-69
2023/03/15 06:26:22;;;;;;;6.53;3.70;;;;;;;11.02;37.58;98991.84;5015168;28;20546;-70
2023/03/15 06:28:51;;;;;;;8.95;4.13;;;;;;;11.20;37.17;98973.75;5016362;28;20144;-68
2023/03/15 06:31:17;;;;;;;11.63;4.00;;;;;;;11.18;37.12;98979.25;4997934;28;20474;-67
2023/03/15 06:34:00;;;;;;;7.22;4.00;;;;;;;11.33;37.01;98968.69;5004198;28;20072;-67
2023/03/15 06:36:26;;;;;;;5.80;3.85;;;;;;;11.42;36.97;98972.91;5018073;28;20049;-66
2023/03/15 06:38:53;;;;;;;6.57;3.63;;;;;;;11.52;36.69;98971.66;5015833;28;20505;-65
2023/03/15 06:41:20;;;;;;;8.15;4.25;;;;;;;11.59;36.65;98964.59;5051684;28;20048;-67
2023/03/15 06:43:47;;;;;;;6.07;3.67;;;;;;;11.52;36.73;98992.94;5033406;28;20392;-66
2023/03/15 06:46:14;;;;;;;7.72;3.72;;;;;;;11.53;36.58;98975.97;5022495;28;20213;-66
2023/03/15 06:48:40;;;;;;;8.02;4.00;;;;;;;11.73;36.41;98979.00;5018723;28;20492;-66
2023/03/15 06:51:08;;;;;;;7.85;3.90;;;;;;;11.79;36.24;98987.03;4986819;28;20135;-67
2023/03/15 06:53:34;;;;;;;6.43;3.70;;;;;;;11.79;36.42;98980.91;5009559;28;20530;-68
2023/03/15 06:55:59;;;;;;;9.48;4.00;;;;;;;12.02;36.19;98971.03;5005830;28;20060;-69
2023/03/15 06:58:25;;;;;;;7.57;4.07;;;;;;;11.93;36.13;98976.63;5002464;28;20044;-66
2023/03/15 07:00:51;;;;;;;5.13;3.90;;;;;;;12.18;35.98;98980.66;5052126;28;20067;-67
2023/03/15 07:03:18;;;;;;;6.95;3.75;;;;;;;12.22;35.81;98973.97;5054539;28;20094;-66
2023/03/15 07:05:45;;;;;;;9.98;4.10;;;;;;;12.51;35.72;98966.78;5018232;28;20045;-66
2023/03/15 07:08:11;;;;;;;5.78;3.80;;;;;;;12.41;35.61;98971.53;5045796;28;20044;-67
2023/03/15 07:10:47;;;;;;;9.68;4.40;;;;;;;12.56;35.37;98969.69;5024430;28;20036;-68
2023/03/15 07:13:13;;;;;;;7.72;3.95;;;;;;;12.81;35.23;98968.34;5054210;28;20051;-66
2023/03/15 07:15:39;;;;;;;7.07;4.10;;;;;;;12.96;34.89;98981.63;5038405;28;20075;-68
2023/03/15 07:18:05;;;;;;;15.40;4.00;;;;;;;13.35;34.69;98968.69;5022084;28;20133;-70
2023/03/15 07:20:31;;;;;;;8.43;4.35;;;;;;;13.14;34.49;98974.06;5037612;28;20048;-65
2023/03/15 07:22:57;;;;;;;9.85;4.35;;;;;;;13.44;34.25;98964.88;5021823;28;20047;-66
2023/03/15 07:25:24;;;;;;;6.32;3.97;;;;;;;13.69;34.16;98974.13;5033114;28;20090;-66
2023/03/15 07:27:51;;;;;;;7.45;4.20;;;;;;;14.16;33.40;98992.13;5057704;28;20464;-67
2023/03/15 07:30:18;;;;;;;9.95;4.22;;;;;;;13.96;33.82;98983.16;5056795;28;20052;-66
2023/03/15 07:32:44;;;;;;;8.25;4.57;;;;;;;14.04;33.25;99007.03;5041140;28;20513;-66
2023/03/15 07:35:09;;;;;;;11.45;4.45;;;;;;;14.88;32.28;98994.13;5057425;28;20039;-67
2023/03/15 07:37:35;;;;;;;6.32;4.10;;;;;;;15.92;30.80;98984.59;5057975;28;20036;-68
2023/03/15 07:40:08;;;;;;;8.98;4.45;;;;;;;16.20;29.65;98995.88;5024954;28;20046;-67
2023/03/15 07:42:38;;;;;;;6.47;3.90;;;;;;;16.48;29.90;98997.28;5042076;28;20231;-71
2023/03/15 07:45:06;;;;;;;7.82;4.53;;;;;;;17.90;27.85;99012.78;5041554;28;20048;-68
2023/03/15 07:47:32;;;;;;;8.85;4.32;;;;;;;17.71;27.57;99023.72;5074673;28;20396;-66
2023/03/15 07:49:58;;;;;;;12.35;4.63;;;;;;;17.60;27.71;99000.25;5057111;28;20044;-68
2023/03/15 07:52:24;;;;;;;13.05;5.00;;;;;;;17.32;28.09;98983.66;5029156;28;20041;-66
2023/03/15 07:54:50;;;;;;;12.48;4.57;;;;;;;18.21;27.32;98996.59;5036945;28;20090;-67
2023/03/15 07:57:16;;;;;;;9.63;4.25;;;;;;;18.34;26.53;99015.25;5031671;28;20036;-66
2023/03/15 07:59:42;;;;;;;6.55;4.22;;;;;;;18.79;26.12;99002.38;5032316;28;20487;-67
2023/03/15 08:02:11;;;;;;;8.13;4.25;;;;;;;17.98;27.23;99012.53;5000242;28;20061;-67
2023/03/15 08:04:37;;;;;;;9.32;4.60;;;;;;;16.55;28.56;99027.59;5049841;28;20134;-67
2023/03/15 08:07:02;;;;;;;6.65;4.38;;;;;;;16.01;29.78;99021.69;5000391;28;20485;-71
2023/03/15 08:09:28;;;;;;;9.20;4.78;;;;;;;15.54;30.32;99063.88;5015730;28;20041;-66
2023/03/15 08:11:54;;;;;;;7.07;4.65;;;;;;;14.90;31.26;99045.56;5048880;28;20562;-66
2023/03/15 08:14:20;;;;;;;5.40;4.15;;;;;;;14.96;31.50;99019.88;5033973;28;20072;-66
2023/03/15 08:16:45;;;;;;;5.85;4.18;;;;;;;15.18;31.56;99056.97;5017548;28;20044;-67
2023/03/15 08:19:11;;;;;;;7.72;4.25;;;;;;;15.12;31.39;99032.88;5017821;28;20460;-67
2023/03/15 08:21:37;;;;;;;7.10;4.63;;;;;;;15.27;31.18;99022.03;5017490;28;20041;-66
2023/03/15 08:24:02;;;;;;;9.50;4.70;;;;;;;15.09;31.60;99054.69;5045102;28;20127;-66
2023/03/15 08:26:28;;;;;;;9.00;4.20;;;;;;;14.99;31.96;99000.75;5001025;28;20064;-66
2023/03/15 08:28:54;;;;;;;7.90;4.72;;;;;;;15.69;31.15;99003.78;5017664;28;20048;-66
2023/03/15 08:31:21;;;;;;;8.00;4.22;;;;;;;16.01;30.69;99010.97;5017153;28;20053;-67
2023/03/15 08:33:47;;;;;;;7.72;4.60;;;;;;;16.16;30.52;98998.16;5034282;28;20106;-66
2023/03/15 08:36:12;;;;;;;8.00;4.63;;;;;;;15.78;30.65;99023.94;5033808;28;20044;-66
2023/03/15 08:38:38;;;;;;;9.45;4.45;;;;;;;15.56;30.87;99009.09;5017282;28;20048;-66
2023/03/15 08:41:04;;;;;;;6.95;4.63;;;;;;;15.53;31.21;99009.50;5000954;28;20052;-68
2023/03/15 08:43:30;;;;;;;7.10;4.68;;;;;;;15.03;32.17;99034.09;5051326;28;20041;-66
2023/03/15 08:45:57;;;;;;;6.05;4.60;;;;;;;15.02;32.35;99040.47;5017120;28;20040;-67
2023/03/15 08:48:22;;;;;;;7.13;4.57;;;;;;;15.91;31.26;99015.94;5017004;28;20044;-66
2023/03/15 08:50:48;;;;;;;5.90;3.90;;;;;;;16.69;30.10;99044.44;5017221;28;20101;-66
2023/03/15 08:53:14;;;;;;;7.18;4.45;;;;;;;16.97;29.57;99026.19;5000401;28;20059;-67
2023/03/15 08:55:39;;;;;;;7.20;4.60;;;;;;;16.54;29.99;99031.28;5033564;28;20041;-66
2023/03/15 08:58:05;;;;;;;7.63;4.78;;;;;;;16.19;30.17;98989.69;5033536;28;20048;-74
2023/03/15 09:00:31;;;;;;;6.88;4.63;;;;;;;15.92;30.77;98993.47;5033609;28;20040;-66
2023/03/15 09:02:57;;;;;;;10.05;4.70;;;;;;;15.95;31.05;98994.88;5048349;28;20079;-66
2023/03/15 09:05:24;;;;;;;8.65;4.70;;;;;;;15.83;30.98;99055.47;5032874;28;20045;-66
2023/03/15 09:07:51;;;;;;;9.07;4.30;;;;;;;15.22;32.11;99007.38;5033322;28;20044;-67
2023/03/15 09:10:18;;;;;;;6.72;4.40;;;;;;;14.76;32.97;99005.63;5016830;28;20053;-66
2023/03/15 09:12:46;;;;;;;10.02;4.97;;;;;;;14.93;33.29;98980.97;5016326;28;20060;-67
2023/03/15 09:15:13;;;;;;;9.85;4.50;;;;;;;14.66;33.48;98983.75;5041990;28;20131;-66
2023/03/15 09:17:39;;;;;;;10.02;4.75;;;;;;;15.22;32.99;98987.84;5049610;28;20134;-66
2023/03/15 09:20:11;;;;;;;5.70;4.10;;;;;;;15.81;32.34;98988.72;5033123;28;20041;-74
2023/03/15 09:22:36;;;;;;;7.93;4.53;;;;;;;15.82;31.49;98994.91;5019064;28;20049;-67
2023/03/15 09:25:03;;;;;;;9.90;5.00;;;;;;;16.04;31.32;98996.31;5003294;28;20507;-66
2023/03/15 09:27:32;;;;;;;10.38;4.70;;;;;;;16.16;31.66;98994.69;5004229;28;20052;-66
2023/03/15 09:29:58;;;;;;;7.93;4.60;;;;;;;16.27;30.92;98997.53;5004573;28;20033;-66
2023/03/15 09:32:24;;;;;;;7.38;4.25;;;;;;;16.40;30.49;98991.31;5004115;28;20045;-66
2023/03/15 09:34:50;;;;;;;8.35;4.90;;;;;;;16.90;30.02;99005.81;5020657;28;20193;-68
2023/03/15 09:37:16;;;;;;;6.47;4.63;;;;;;;16.76;30.56;98968.31;5020071;28;20037;-66
2023/03/15 09:39:42;;;;;;;8.02;4.80;;;;;;;17.24;29.38;98967.81;5020619;28;20056;-67
2023/03/15 09:42:39;;;;;;;6.18;4.03;;;;;;;19.21;27.74;98990.63;5004184;28;20057;-67
2023/03/15 09:45:31;;;;;;;6.40;4.45;;;;;;;19.41;27.06;98993.91;4944767;28;20109;-68
2023/03/15 09:48:07;;;;;;;7.13;4.50;;;;;;;19.09;27.38;98981.69;4976691;28;20045;-67
2023/03/15 09:50:36;;;;;;;7.35;4.85;;;;;;;18.95;27.71;98979.41;4993295;28;20057;-66
2023/03/15 09:53:23;;;;;;;6.25;4.25;;;;;;;19.60;26.73;99000.03;4992999;28;20050;-66
2023/03/15 09:55:52;;;;;;;6.32;4.05;;;;;;;19.78;26.09;99016.13;4993679;28;20122;-68
2023/03/15 09:58:24;;;;;;;9.88;4.50;;;;;;;21.24;25.01;98987.81;4987858;28;20059;-67
2023/03/15 10:00:55;;;;;;;7.28;4.10;;;;;;;21.56;24.18;98994.34;5008693;28;20048;-67
2023/03/15 10:03:30;;;;;;;9.40;4.13;;;;;;;22.43;23.28;98981.94;5039566;28;20120;-66
2023/03/15 10:06:00;;;;;;;8.13;4.20;;;;;;;21.12;24.02;98995.97;5022893;28;20515;-67
2023/03/15 10:08:26;;;;;;;7.40;4.15;;;;;;;20.07;25.13;99007.13;5039512;28;20131;-67
2023/03/15 10:11:03;;;;;;;12.23;4.80;;;;;;;18.70;27.07;98966.06;5039459;28;20060;-67
2023/03/15 10:14:07;;;;;;;6.75;4.47;;;;;;;17.46;28.87;98993.31;5038197;28;20143;-67
2023/03/15 10:16:40;;;;;;;5.95;4.43;;;;;;;16.52;30.13;98946.75;5039359;28;20392;-67
2023/03/15 10:19:22;;;;;;;7.78;4.05;;;;;;;16.20;31.22;99002.09;5038945;28;20133;-70
2023/03/15 10:21:59;;;;;;;8.65;4.50;;;;;;;16.39;31.47;98982.44;5058200;28;20104;-67
2023/03/15 10:24:45;;;;;;;8.85;4.25;;;;;;;16.46;30.94;98961.84;5053415;28;20776;-67
2023/03/15 10:27:14;;;;;;;5.93;4.25;;;;;;;17.53;30.21;98930.47;5018589;28;20052;-68
2023/03/15 10:29:41;;;;;;;9.73;5.25;;;;;;;18.34;28.46;98931.91;5051663;28;20041;-68
2023/03/15 10:32:16;;;;;;;8.15;4.93;;;;;;;19.39;27.26;98970.97;5044501;28;20036;-68
2023/03/15 10:34:47;;;;;;;7.60;4.50;;;;;;;19.58;27.17;98957.16;4987058;28;20501;-70
2023/03/15 10:37:13;;;;;;;;;;;;;;;19.73;26.71;98959.41;5010452;28;20057;-70
2023/03/15 10:39:38;;;;;;;6.38;4.30;;;;;;;19.23;26.66;98971.56;4972292;28;20075;-68
2023/03/15 10:42:04;;;;;;;10.88;4.72;;;;;;;19.77;26.23;98974.88;4986695;28;20050;-72
2023/03/15 10:44:36;;;;;;;7.72;4.72;;;;;;;20.50;26.05;98960.91;5020031;28;20053;-67
2023/03/15 10:47:11;;;;;;;7.07;4.70;;;;;;;20.33;25.83;98976.22;5021151;28;20042;-67
2023/03/15 10:49:38;;;;;;;7.78;4.75;;;;;;;19.62;26.20;98963.72;4987694;28;20139;-70
2023/03/15 10:52:05;;;;;;;11.82;5.22;;;;;;;19.44;26.41;98963.81;5018955;28;20064;-68
2023/03/15 10:54:32;;;;;;;10.25;4.93;;;;;;;19.22;26.96;98975.31;4996278;28;20060;-67
2023/03/15 10:57:06;;;;;;;12.32;4.93;;;;;;;19.12;27.22;98962.41;5003375;28;20072;-67
2023/03/15 10:59:34;;;;;;;11.75;4.88;;;;;;;18.31;28.24;98961.13;4972278;28;20131;-67
2023/03/15 11:02:11;;;;;;;9.55;5.20;;;;;;;17.75;28.94;98993.50;5006098;28;20061;-66
2023/03/15 11:04:42;;;;;;;6.53;4.50;;;;;;;17.54;29.78;98956.28;5007174;28;20042;-69
2023/03/15 11:07:08;;;;;;;9.30;4.97;;;;;;;17.20;30.01;98966.63;5027298;28;20553;-69
2023/03/15 11:09:59;;;;;;;11.18;4.88;;;;;;;17.41;29.94;98956.34;5009283;28;20037;-67
2023/03/15 11:12:28;;;;;;;7.80;4.80;;;;;;;17.47;29.78;98952.81;5028294;28;20143;-67
2023/03/15 11:15:04;;;;;;;6.25;4.32;;;;;;;17.55;29.83;98959.78;5033927;28;20047;-67
2023/03/15 11:17:33;;;;;;;9.23;4.72;;;;;;;17.66;30.13;98959.06;5034190;28;20061;-68
2023/03/15 11:20:11;;;;;;;11.35;5.00;;;;;;;17.90;29.66;98964.44;5011092;28;20118;-67
2023/03/15 11:22:38;;;;;;;6.88;4.57;;;;;;;17.93;29.14;98984.66;5051447;28;20097;-72
2023/03/15 11:25:10;;;;;;;9.98;4.57;;;;;;;18.56;28.56;98975.34;5045859;28;20052;-67
2023/03/15 11:27:36;;;;;;;7.45;4.22;;;;;;;18.21;28.62;98972.41;5012351;28;20097;-75
2023/03/15 11:30:03;;;;;;;6.30;4.32;;;;;;;18.50;28.26;99029.22;5043044;28;20358;-68
2023/03/15 11:32:30;;;;;;;5.22;4.18;;;;;;;18.45;28.46;98968.03;5025467;28;20491;-68
2023/03/15 11:35:03;;;;;;;5.55;4.35;;;;;;;18.87;28.18;98966.25;5010736;28;20642;-69
2023/03/15 11:37:37;;;;;;;6.50;4.20;;;;;;;18.50;28.32;98984.31;5011168;28;20056;-69
2023/03/15 11:40:33;;;;;;;9.18;4.07;;;;;;;18.22;28.71;98978.59;5043369;28;20044;-68
2023/03/15 11:43:00;;;;;;;8.98;5.35;;;;;;;17.09;30.23;98999.50;5043796;28;20036;-69
2023/03/15 11:45:41;;;;;;;7.95;4.80;;;;;;;16.41;31.63;98979.53;5043627;28;20041;-68
2023/03/15 11:49:27;;;;;;;6.85;4.13;;;;;;;15.42;32.83;99038.75;5039746;28;20580;-67
2023/03/15 11:51:46;;;;;;;7.63;4.93;;;;;;;14.68;34.09;99003.91;5040109;28;20052;-67
2023/03/15 11:54:15;;;;;;;11.27;4.82;;;;;;;14.81;34.56;98987.94;5024819;28;20087;-67